createdAt,value
2018-08-09T00:01:03.577Z,14.53
2018-08-09T00:03:33.329Z,15.70
2018-08-09T00:06:02.126Z,17.10
2018-08-09T00:08:31.400Z,15.77
2018-08-09T00:11:00.682Z,16.67
2018-08-09T00:13:30.277Z,16.97
2018-08-09T00:15:59.989Z,15.17
2018-08-09T00:18:29.210Z,16.13
2018-08-09T00:20:58.335Z,15.07
2018-08-09T00:23:27.492Z,14.37
2018-08-09T00:25:56.641Z,15.57
2018-08-09T00:28:25.799Z,16.23
2018-08-09T00:30:54.898Z,15.33
2018-08-09T00:33:24.050Z,15.83
2018-08-09T00:35:53.206Z,17.60
2018-08-09T00:38:22.385Z,18.70
2018-08-09T00:40:51.505Z,16.73
2018-08-09T00:43:20.618Z,17.97
2018-08-09T00:45:49.760Z,18.13
2018-08-09T00:48:19.325Z,17.53
2018-08-09T00:50:48.446Z,16.10
2018-08-09T00:53:17.590Z,16.10
2018-08-09T00:55:46.846Z,17.00
2018-08-09T00:58:16.062Z,17.10
2018-08-09T01:00:44.737Z,16.23
2018-08-09T01:03:13.857Z,16.60
2018-08-09T01:05:42.981Z,17.00
2018-08-09T01:08:12.106Z,16.67
2018-08-09T01:10:41.221Z,15.20
2018-08-09T01:13:12.796Z,17.13
2018-08-09T01:15:41.916Z,16.90
2018-08-09T01:18:11.773Z,15.00
2018-08-09T01:20:40.916Z,15.10
2018-08-09T01:23:10.026Z,16.40
2018-08-09T01:25:39.134Z,15.70
2018-08-09T01:28:08.273Z,15.70
2018-08-09T01:30:38.085Z,16.07
2018-08-09T01:33:07.390Z,17.27
2018-08-09T01:35:36.495Z,14.43
2018-08-09T01:38:05.629Z,17.23
2018-08-09T01:40:34.790Z,16.73
2018-08-09T01:43:20.838Z,16.63
2018-08-09T01:45:50.002Z,16.23
2018-08-09T01:48:20.577Z,14.33
2018-08-09T01:50:49.708Z,15.43
2018-08-09T01:53:18.842Z,15.20
2018-08-09T01:55:48.046Z,16.30
2018-08-09T01:58:19.481Z,16.20
2018-08-09T02:00:49.512Z,16.73
2018-08-09T02:03:18.773Z,17.00
2018-08-09T02:05:47.830Z,16.30
2018-08-09T02:08:17.435Z,16.40
2018-08-09T02:10:46.594Z,17.17
2018-08-09T02:13:15.734Z,15.73
2018-08-09T02:15:45.361Z,16.80
2018-08-09T02:18:17.118Z,16.83
2018-08-09T02:20:46.250Z,16.50
2018-08-09T02:23:15.358Z,19.27
2018-08-09T02:25:44.481Z,17.50
2018-08-09T02:28:13.757Z,18.23
2018-08-09T02:30:42.882Z,17.57
2018-08-09T02:33:11.995Z,18.97
2018-08-09T02:35:41.136Z,18.03
2018-08-09T02:38:10.266Z,18.00
2018-08-09T02:40:39.474Z,17.80
2018-08-09T02:43:08.614Z,18.00
2018-08-09T02:45:37.731Z,21.20
2018-08-09T02:48:07.228Z,18.60
2018-08-09T02:50:36.478Z,19.23
2018-08-09T02:53:05.806Z,19.00
2018-08-09T02:55:34.906Z,18.17
2018-08-09T02:58:04.110Z,19.43
2018-08-09T03:00:33.382Z,18.10
2018-08-09T03:03:02.730Z,17.90
2018-08-09T03:05:32.850Z,18.50
2018-08-09T03:08:01.982Z,21.50
2018-08-09T03:10:31.109Z,20.40
2018-08-09T03:13:00.264Z,20.60
2018-08-09T03:15:29.354Z,19.37
2018-08-09T03:17:58.486Z,20.97
2018-08-09T03:20:27.774Z,18.20
2018-08-09T03:22:57.169Z,20.53
2018-08-09T03:25:26.386Z,18.77
2018-08-09T03:27:55.926Z,18.23
2018-08-09T03:30:25.162Z,19.10
2018-08-09T03:32:54.818Z,20.50
2018-08-09T03:35:23.489Z,21.07
2018-08-09T03:37:52.641Z,18.00
2018-08-09T03:40:21.753Z,17.13
2018-08-09T03:42:51.255Z,20.93
2018-08-09T03:45:20.369Z,20.70
2018-08-09T03:47:49.493Z,19.93
2018-08-09T03:50:18.605Z,19.87
2018-08-09T03:52:47.701Z,21.60
2018-08-09T03:55:16.852Z,21.00
2018-08-09T03:57:46.035Z,22.00
2018-08-09T04:00:15.981Z,21.93
2018-08-09T04:02:45.741Z,20.63
2018-08-09T04:05:15.029Z,22.60
2018-08-09T04:07:44.161Z,21.00
2018-08-09T04:10:13.262Z,20.73
2018-08-09T04:12:42.366Z,20.17
2018-08-09T04:15:13.206Z,19.47
2018-08-09T04:17:42.301Z,15.93
2018-08-09T04:20:11.426Z,18.50
2018-08-09T04:22:40.549Z,18.37
2018-08-09T04:25:09.660Z,16.63
2018-08-09T04:27:38.845Z,17.50
2018-08-09T04:30:07.940Z,17.70
2018-08-09T04:32:37.053Z,20.17
2018-08-09T04:35:06.381Z,18.93
2018-08-09T04:37:35.471Z,18.20
2018-08-09T04:40:04.674Z,19.30
2018-08-09T04:42:33.785Z,19.07
2018-08-09T04:45:03.517Z,17.10
2018-08-09T04:47:32.665Z,15.70
2018-08-09T04:50:01.772Z,15.63
2018-08-09T04:52:30.865Z,17.23
2018-08-09T04:54:59.953Z,19.33
2018-08-09T04:57:29.178Z,16.67
2018-08-09T04:59:58.469Z,16.80
2018-08-09T05:02:28.194Z,16.70
2018-08-09T05:04:57.577Z,16.97
2018-08-09T05:07:26.997Z,15.33
2018-08-09T05:09:58.829Z,15.87
2018-08-09T05:12:27.989Z,14.60
2018-08-09T05:14:57.133Z,15.67
2018-08-09T05:17:26.233Z,14.90
2018-08-09T05:19:55.333Z,16.07
2018-08-09T05:22:24.754Z,13.40
2018-08-09T05:24:53.865Z,14.40
2018-08-09T05:27:22.969Z,13.00
2018-08-09T05:29:52.071Z,14.50
2018-08-09T05:32:21.194Z,14.30
2018-08-09T05:34:50.386Z,13.80
2018-08-09T05:37:19.497Z,12.47
2018-08-09T05:39:48.637Z,13.30
2018-08-09T05:42:17.881Z,14.70
2018-08-09T05:44:47.046Z,14.00
2018-08-09T05:47:16.583Z,13.50
2018-08-09T05:49:45.909Z,15.50
2018-08-09T05:52:15.813Z,14.60
2018-08-09T05:54:45.165Z,13.13
2018-08-09T05:57:15.613Z,13.83
2018-08-09T05:59:44.700Z,13.37
2018-08-09T06:02:13.822Z,13.27
2018-08-09T06:04:43.221Z,13.63
2018-08-09T06:07:12.481Z,13.40
2018-08-09T06:09:41.753Z,12.40
2018-08-09T06:12:11.142Z,12.87
2018-08-09T06:14:39.349Z,13.27
2018-08-09T06:17:09.337Z,13.70
2018-08-09T06:19:38.022Z,12.33
2018-08-09T06:22:07.949Z,12.10
2018-08-09T06:24:37.085Z,13.00
2018-08-09T06:27:06.402Z,12.37
2018-08-09T06:29:35.168Z,13.40
2018-08-09T06:32:04.486Z,12.43
2018-08-09T06:34:33.707Z,14.43
2018-08-09T06:37:02.925Z,11.00
2018-08-09T06:39:32.542Z,10.93
2018-08-09T06:42:02.174Z,12.67
2018-08-09T06:44:31.559Z,12.50
2018-08-09T06:47:01.016Z,11.10
2018-08-09T06:49:30.166Z,12.23
2018-08-09T06:51:59.318Z,13.07
2018-08-09T06:54:28.463Z,12.33
2018-08-09T06:56:58.151Z,11.80
2018-08-09T06:59:27.653Z,11.57
2018-08-09T07:01:56.782Z,11.90
2018-08-09T07:04:26.058Z,11.20
2018-08-09T07:06:55.211Z,10.47
2018-08-09T07:09:24.546Z,13.03
2018-08-09T07:11:54.366Z,13.30
2018-08-09T07:14:24.245Z,12.17
2018-08-09T07:16:54.085Z,11.77
2018-08-09T07:19:22.804Z,12.60
2018-08-09T07:21:52.326Z,11.07
2018-08-09T07:24:22.346Z,11.27
2018-08-09T07:26:51.473Z,12.03
2018-08-09T07:29:20.614Z,12.37
2018-08-09T07:31:50.258Z,11.93
2018-08-09T07:34:19.370Z,11.27
2018-08-09T07:36:49.133Z,10.13
2018-08-09T07:39:18.000Z,11.50
2018-08-09T07:41:47.578Z,10.73
2018-08-09T07:44:17.436Z,10.87
2018-08-09T07:46:47.091Z,9.90
2018-08-09T07:49:16.409Z,10.40
2018-08-09T07:51:46.365Z,11.70
2018-08-09T07:54:15.624Z,11.23
2018-08-09T07:56:47.717Z,10.63
2018-08-09T07:59:19.933Z,12.10
2018-08-09T08:01:49.166Z,11.13
2018-08-09T08:04:19.157Z,10.47
2018-08-09T08:06:48.397Z,10.63
2018-08-09T08:09:17.677Z,10.47
2018-08-09T08:11:47.258Z,10.30
2018-08-09T08:14:17.682Z,10.50
2018-08-09T08:16:46.994Z,10.87
2018-08-09T08:19:16.102Z,10.97
2018-08-09T08:21:45.264Z,11.00
2018-08-09T08:24:15.145Z,11.13
2018-08-09T08:26:44.614Z,10.60
2018-08-09T08:29:13.657Z,10.00
2018-08-09T08:31:43.238Z,10.07
2018-08-09T08:34:12.345Z,11.00
2018-08-09T08:36:41.521Z,9.70
2018-08-09T08:39:10.957Z,9.90
2018-08-09T08:41:40.385Z,10.33
2018-08-09T08:44:09.473Z,10.30
2018-08-09T08:46:38.693Z,10.40
2018-08-09T08:49:07.795Z,10.90
2018-08-09T08:51:37.785Z,9.57
2018-08-09T08:54:07.993Z,10.60
2018-08-09T08:56:37.117Z,10.20
2018-08-09T08:59:06.658Z,10.07
2018-08-09T09:01:36.553Z,9.70
2018-08-09T09:04:06.517Z,10.07
2018-08-09T09:06:37.088Z,10.77
2018-08-09T09:09:11.720Z,9.77
2018-08-09T09:11:41.045Z,10.73
2018-08-09T09:14:10.377Z,9.90
2018-08-09T09:16:39.539Z,8.20
2018-08-09T09:19:10.056Z,9.63
2018-08-09T09:21:39.137Z,9.07
2018-08-09T09:24:08.241Z,9.53
2018-08-09T09:26:37.334Z,9.60
2018-08-09T09:29:08.053Z,10.70
2018-08-09T09:31:37.878Z,9.70
2018-08-09T09:34:07.014Z,8.50
2018-08-09T09:36:36.157Z,9.43
2018-08-09T09:39:09.737Z,9.60
2018-08-09T09:41:39.886Z,9.33
2018-08-09T09:44:09.421Z,9.87
2018-08-09T09:46:38.525Z,10.90
2018-08-09T09:49:08.245Z,9.50
2018-08-09T09:51:38.134Z,9.40
2018-08-09T09:54:07.685Z,9.27
2018-08-09T09:56:37.583Z,10.13
2018-08-09T09:59:06.957Z,9.63
2018-08-09T10:01:37.157Z,10.10
2018-08-09T10:04:07.098Z,9.83
2018-08-09T10:06:37.625Z,9.50
2018-08-09T10:09:11.433Z,10.10
2018-08-09T10:11:42.005Z,10.03
2018-08-09T10:14:11.418Z,10.60
2018-08-09T10:16:40.691Z,11.23
2018-08-09T10:19:10.537Z,9.73
2018-08-09T10:21:40.648Z,9.00
2018-08-09T10:24:10.348Z,9.77
2018-08-09T10:26:40.374Z,10.60
2018-08-09T10:29:12.259Z,9.70
2018-08-09T10:31:42.266Z,10.10
2018-08-09T10:34:11.003Z,9.90
2018-08-09T10:36:40.124Z,8.97
2018-08-09T10:39:11.669Z,9.07
2018-08-09T10:41:45.489Z,9.20
2018-08-09T10:44:16.134Z,9.13
2018-08-09T10:46:45.241Z,10.27
2018-08-09T10:49:18.454Z,11.23
2018-08-09T10:51:48.386Z,9.83
2018-08-09T10:54:17.657Z,9.53
2018-08-09T10:56:46.877Z,9.07
2018-08-09T10:59:16.022Z,9.10
2018-08-09T11:01:45.508Z,9.03
2018-08-09T11:04:14.684Z,8.97
2018-08-09T11:06:43.785Z,8.90
2018-08-09T11:09:13.269Z,9.33
2018-08-09T11:11:42.517Z,9.60
2018-08-09T11:14:11.789Z,9.83
2018-08-09T11:16:40.645Z,9.40
2018-08-09T11:19:09.814Z,8.50
2018-08-09T11:21:38.890Z,9.33
2018-08-09T11:24:08.242Z,9.70
2018-08-09T11:26:37.321Z,8.73
2018-08-09T11:29:06.629Z,10.00
2018-08-09T11:31:35.769Z,8.90
2018-08-09T11:34:05.106Z,8.37
2018-08-09T11:36:34.442Z,8.53
2018-08-09T11:39:05.117Z,9.73
2018-08-09T11:41:34.213Z,9.87
2018-08-09T11:44:03.346Z,9.37
2018-08-09T11:46:32.517Z,8.80
2018-08-09T11:49:01.658Z,8.17
2018-08-09T11:51:30.732Z,8.00
2018-08-09T11:53:59.866Z,8.80
2018-08-09T11:56:29.851Z,8.00
2018-08-09T11:58:58.850Z,9.10
2018-08-09T12:01:28.284Z,9.40
2018-08-09T12:03:57.842Z,8.30
2018-08-09T12:06:26.971Z,6.93
2018-08-09T12:08:56.053Z,6.60
2018-08-09T12:11:25.199Z,6.77
2018-08-09T12:13:54.350Z,6.50
2018-08-09T12:16:24.213Z,6.97
2018-08-09T12:18:53.601Z,6.80
2018-08-09T12:21:23.150Z,6.57
2018-08-09T12:23:53.126Z,6.80
2018-08-09T12:26:21.915Z,6.33
2018-08-09T12:28:51.194Z,7.07
2018-08-09T12:31:20.369Z,6.87
2018-08-09T12:33:50.357Z,6.60
2018-08-09T12:36:19.514Z,6.70
2018-08-09T12:38:49.415Z,6.93
2018-08-09T12:41:20.869Z,6.87
2018-08-09T12:43:50.586Z,6.30
2018-08-09T12:46:22.661Z,7.17
2018-08-09T12:48:51.860Z,7.90
2018-08-09T12:51:20.995Z,6.30
2018-08-09T12:53:50.406Z,7.20
2018-08-09T12:56:20.564Z,7.67
2018-08-09T12:58:51.133Z,7.47
2018-08-09T13:01:20.841Z,6.30
2018-08-09T13:03:49.942Z,7.20
2018-08-09T13:06:18.718Z,6.07
2018-08-09T13:08:47.911Z,7.40
2018-08-09T13:11:20.398Z,6.20
2018-08-09T13:13:50.854Z,6.20
2018-08-09T13:16:19.909Z,5.87
2018-08-09T13:18:50.419Z,7.20
2018-08-09T13:21:19.517Z,6.90
2018-08-09T13:23:48.720Z,7.57
2018-08-09T13:26:20.138Z,7.00
2018-08-09T13:28:49.825Z,6.57
2018-08-09T13:31:19.043Z,7.20
2018-08-09T13:33:48.107Z,7.37
2018-08-09T13:36:17.253Z,7.20
2018-08-09T13:38:46.342Z,7.90
2018-08-09T13:41:15.489Z,7.03
2018-08-09T13:43:45.205Z,6.57
2018-08-09T13:46:17.722Z,5.43
2018-08-09T13:48:48.034Z,4.40
2018-08-09T13:51:17.184Z,4.93
2018-08-09T13:53:46.254Z,5.33
2018-08-09T13:56:15.028Z,6.50
2018-08-09T13:58:44.130Z,5.40
2018-08-09T14:01:13.210Z,6.80
2018-08-09T14:03:42.294Z,5.20
2018-08-09T14:06:11.422Z,6.37
2018-08-09T14:08:40.501Z,5.33
2018-08-09T14:11:12.901Z,4.97
2018-08-09T14:13:42.078Z,5.67
2018-08-09T14:16:11.684Z,5.83
2018-08-09T14:18:41.650Z,6.47
2018-08-09T14:21:10.801Z,4.40
2018-08-09T14:23:39.878Z,5.00
2018-08-09T14:26:08.972Z,5.17
2018-08-09T14:28:38.113Z,5.10
2018-08-09T14:31:07.210Z,5.00
2018-08-09T14:33:36.298Z,4.50
2018-08-09T14:36:05.429Z,5.60
2018-08-09T14:38:34.604Z,4.70
2018-08-09T14:41:03.693Z,6.63
2018-08-09T14:43:32.859Z,5.00
2018-08-09T14:46:02.667Z,4.60
2018-08-09T14:48:32.347Z,5.40
2018-08-09T14:51:01.497Z,5.37
2018-08-09T14:53:30.566Z,4.60
2018-08-09T14:55:59.910Z,5.40
2018-08-09T14:58:29.046Z,4.87
2018-08-09T15:00:58.137Z,4.57
2018-08-09T15:03:27.238Z,5.87
2018-08-09T15:05:56.336Z,5.27
2018-08-09T15:08:25.462Z,5.27
2018-08-09T15:10:54.576Z,4.90
2018-08-09T15:13:24.498Z,5.10
2018-08-09T15:15:53.618Z,5.43
2018-08-09T15:18:22.723Z,5.73
2018-08-09T15:20:52.410Z,5.03
2018-08-09T15:23:21.697Z,5.57
2018-08-09T15:25:53.985Z,5.00
2018-08-09T15:28:22.646Z,5.20
2018-08-09T15:30:51.788Z,5.90
2018-08-09T15:33:20.960Z,5.10
2018-08-09T15:35:50.105Z,4.93
2018-08-09T15:38:19.308Z,5.10
2018-08-09T15:40:48.314Z,5.97
2018-08-09T15:43:17.421Z,5.03
2018-08-09T15:45:46.653Z,4.83
2018-08-09T15:48:15.790Z,4.10
2018-08-09T15:50:44.925Z,3.70
2018-08-09T15:53:14.058Z,4.57
2018-08-09T15:55:43.137Z,4.03
2018-08-09T15:58:12.306Z,3.43
2018-08-09T16:00:41.455Z,4.33
2018-08-09T16:03:10.574Z,4.00
2018-08-09T16:05:39.693Z,4.43
2018-08-09T16:08:08.874Z,3.87
2018-08-09T16:10:37.957Z,3.20
2018-08-09T16:13:07.098Z,3.57
2018-08-09T16:15:36.199Z,3.73
2018-08-09T16:18:05.586Z,4.30
2018-08-09T16:20:34.350Z,4.20
2018-08-09T16:23:04.075Z,3.83
2018-08-09T16:25:33.091Z,4.10
2018-08-09T16:28:02.220Z,3.63
2018-08-09T16:30:31.344Z,3.60
2018-08-09T16:33:00.413Z,3.97
2018-08-09T16:35:29.533Z,3.83
2018-08-09T16:37:58.630Z,5.83
2018-08-09T16:40:27.712Z,4.37
2018-08-09T16:42:57.210Z,4.37
2018-08-09T16:45:26.693Z,4.10
2018-08-09T16:47:56.081Z,4.10
2018-08-09T16:50:26.030Z,4.07
2018-08-09T16:52:55.338Z,4.53
2018-08-09T16:55:25.326Z,4.37
2018-08-09T16:57:54.618Z,3.27
2018-08-09T17:00:26.730Z,3.40
2018-08-09T17:02:55.540Z,3.30
2018-08-09T17:05:27.020Z,3.90
2018-08-09T17:07:59.023Z,3.90
2018-08-09T17:10:28.558Z,3.70
2018-08-09T17:12:57.377Z,3.60
2018-08-09T17:15:29.438Z,3.60
2018-08-09T17:17:59.502Z,3.20
2018-08-09T17:20:32.103Z,3.60
2018-08-09T17:23:03.410Z,4.00
2018-08-09T17:25:32.793Z,4.20
2018-08-09T17:28:02.093Z,4.67
2018-08-09T17:30:32.583Z,3.53
2018-08-09T17:33:01.754Z,3.17
2018-08-09T17:35:31.029Z,4.00
2018-08-09T17:38:00.114Z,3.40
2018-08-09T17:40:31.074Z,3.47
2018-08-09T17:43:00.985Z,3.50
2018-08-09T17:45:32.359Z,3.50
2018-08-09T17:48:02.490Z,3.17
2018-08-09T17:50:32.410Z,2.87
2018-08-09T17:53:02.446Z,3.50
2018-08-09T17:55:33.378Z,4.67
2018-08-09T17:58:03.473Z,3.20
2018-08-09T18:00:33.778Z,4.30
2018-08-09T18:03:03.792Z,4.03
2018-08-09T18:05:34.598Z,4.23
2018-08-09T18:08:03.706Z,4.53
2018-08-09T18:10:35.238Z,4.20
2018-08-09T18:13:04.933Z,4.67
2018-08-09T18:15:33.848Z,6.97
2018-08-09T18:18:03.893Z,4.33
2018-08-09T18:20:34.867Z,3.80
2018-08-09T18:23:03.992Z,5.03
2018-08-09T18:25:33.178Z,5.53
2018-08-09T18:28:02.274Z,4.87
2018-08-09T18:30:31.466Z,4.40
2018-08-09T18:33:02.011Z,4.57
2018-08-09T18:35:32.104Z,4.53
2018-08-09T18:38:00.915Z,4.50
2018-08-09T18:40:30.206Z,4.37
2018-08-09T18:42:59.575Z,4.43
2018-08-09T18:45:28.738Z,4.27
2018-08-09T18:47:57.927Z,3.80
2018-08-09T18:50:29.531Z,4.10
2018-08-09T18:53:00.022Z,4.77
2018-08-09T18:55:58.725Z,4.60
2018-08-09T18:58:28.217Z,4.67
2018-08-09T19:00:57.305Z,4.70
2018-08-09T19:03:28.140Z,5.13
2018-08-09T19:05:57.274Z,4.60
2018-08-09T19:08:28.090Z,4.40
2018-08-09T19:10:57.173Z,4.57
2018-08-09T19:13:27.719Z,3.90
2018-08-09T19:15:56.842Z,5.23
2018-08-09T19:18:26.295Z,4.23
2018-08-09T19:21:06.290Z,4.50
2018-08-09T19:23:35.030Z,4.27
2018-08-09T19:26:04.694Z,5.10
2018-08-09T19:28:34.437Z,4.93
2018-08-09T19:31:03.521Z,5.10
2018-08-09T19:33:34.745Z,4.53
2018-08-09T19:36:03.845Z,4.90
2018-08-09T19:38:32.917Z,4.73
2018-08-09T19:41:02.250Z,4.20
2018-08-09T19:43:33.125Z,3.80
2018-08-09T19:46:02.286Z,4.67
2018-08-09T19:48:33.146Z,5.30
2018-08-09T19:51:02.518Z,4.03
2018-08-09T19:53:31.350Z,4.40
2018-08-09T19:56:00.487Z,4.57
2018-08-09T19:58:29.601Z,5.60
2018-08-09T20:00:58.827Z,5.03
2018-08-09T20:03:28.181Z,4.40
2018-08-09T20:05:57.423Z,5.60
2018-08-09T20:08:26.513Z,4.60
2018-08-09T20:10:55.605Z,6.53
2018-08-09T20:13:30.106Z,5.37
2018-08-09T20:15:59.194Z,5.27
2018-08-09T20:18:28.318Z,4.90
2018-08-09T20:20:57.697Z,5.00
2018-08-09T20:23:27.706Z,5.57
2018-08-09T20:25:57.294Z,4.50
2018-08-09T20:28:26.575Z,4.90
2018-08-09T20:30:56.297Z,5.43
2018-08-09T20:33:25.541Z,5.50
2018-08-09T20:35:54.655Z,5.10
2018-08-09T20:38:23.814Z,5.77
2018-08-09T20:40:52.912Z,6.07
2018-08-09T20:43:23.646Z,6.90
2018-08-09T20:45:52.741Z,6.23
2018-08-09T20:48:22.612Z,6.70
2018-08-09T20:50:51.991Z,5.57
2018-08-09T20:53:21.111Z,4.57
2018-08-09T20:55:50.794Z,5.30
2018-08-09T20:58:20.686Z,5.50
2018-08-09T21:00:49.770Z,6.80
2018-08-09T21:03:18.914Z,5.80
2018-08-09T21:05:48.742Z,5.63
2018-08-09T21:08:17.917Z,4.67
2018-08-09T21:10:47.275Z,5.53
2018-08-09T21:13:16.934Z,6.30
2018-08-09T21:15:46.649Z,5.00
2018-08-09T21:18:15.556Z,5.53
2018-08-09T21:20:44.715Z,5.07
2018-08-09T21:23:14.664Z,4.93
2018-08-09T21:25:44.082Z,5.30
2018-08-09T21:28:13.415Z,4.90
2018-08-09T21:30:42.558Z,5.80
2018-08-09T21:33:11.686Z,4.60
2018-08-09T21:35:40.814Z,5.87
2018-08-09T21:38:10.037Z,5.90
2018-08-09T21:40:39.349Z,5.97
2018-08-09T21:43:10.198Z,5.50
2018-08-09T21:45:41.701Z,5.30
2018-08-09T21:48:10.934Z,4.40
2018-08-09T21:50:41.238Z,5.00
2018-08-09T21:53:10.351Z,4.87
2018-08-09T21:55:39.437Z,4.00
2018-08-09T21:58:08.897Z,3.83
2018-08-09T22:00:49.534Z,4.43
2018-08-09T22:03:21.334Z,4.00
2018-08-09T22:05:55.799Z,4.10
2018-08-09T22:08:30.109Z,4.07
2018-08-09T22:11:04.519Z,4.00
2018-08-09T22:13:38.821Z,4.27
2018-08-09T22:16:13.105Z,4.63
2018-08-09T22:18:47.695Z,4.30
2018-08-09T22:21:22.193Z,4.73
2018-08-09T22:23:51.379Z,4.13
2018-08-09T22:26:20.468Z,4.10
2018-08-09T22:28:49.573Z,4.00
2018-08-09T22:31:20.310Z,4.73
2018-08-09T22:33:49.357Z,3.70
2018-08-09T22:36:18.550Z,4.67
2018-08-09T22:38:47.571Z,4.03
2018-08-09T22:41:16.690Z,3.47
2018-08-09T22:43:47.434Z,4.00
2018-08-09T22:46:16.451Z,3.97
2018-08-09T22:48:45.550Z,4.23
2018-08-09T22:51:14.647Z,3.53
2018-08-09T22:53:43.766Z,3.33
2018-08-09T22:56:12.857Z,4.03
2018-08-09T22:58:41.938Z,4.00
2018-08-09T23:01:11.070Z,3.20
2018-08-09T23:03:41.851Z,3.80
2018-08-09T23:06:10.919Z,3.60
2018-08-09T23:08:40.003Z,4.40
2018-08-09T23:11:09.675Z,4.07
2018-08-09T23:13:38.758Z,4.10
2018-08-09T23:16:08.066Z,3.53
2018-08-09T23:18:37.809Z,4.00
2018-08-09T23:21:06.893Z,4.40
2018-08-09T23:23:35.978Z,3.40
2018-08-09T23:26:05.109Z,3.70
2018-08-09T23:28:34.436Z,3.70
2018-08-09T23:31:03.578Z,3.80
2018-08-09T23:33:32.720Z,3.57
2018-08-09T23:36:01.902Z,3.17
2018-08-09T23:38:31.502Z,3.47
2018-08-09T23:41:00.826Z,3.70
2018-08-09T23:43:30.429Z,3.97
2018-08-09T23:45:59.694Z,2.87
2018-08-09T23:48:28.954Z,4.07
2018-08-09T23:50:58.178Z,3.03
2018-08-09T23:53:27.974Z,3.53
2018-08-09T23:55:57.203Z,3.33
2018-08-09T23:58:26.361Z,3.67
